Terminal Aerodrome Forecast
Issued by NWS Mobile, AL

Home | Current Version | Previous Version | Text Only | Print | Product List | Glossary On
Versions: 1 2 3 4 5 6 7 8 9 10 11 12 13 14
000
FTUS44 KMOB 260537
TAFPNS
TAF
KPNS 260537Z 2606/2706 00000KT P6SM BKN200
     FM261200 34003KT P6SM VCTS SCT030CB BKN250
     FM261500 34005KT P6SM VCTS SCT030CB SCT250 PROB30 2615/2618
      P6SM TSRA BKN030CB=

USA.gov is the U.S. government's official web portal to all federal, state and local government web resources and services.